createdAt,value
2019-04-01T00:01:01.869Z,2.70
2019-04-01T00:03:32.889Z,2.69
2019-04-01T00:06:03.787Z,2.67
2019-04-01T00:08:34.723Z,2.67
2019-04-01T00:11:05.625Z,2.65
2019-04-01T00:13:37.414Z,2.63
2019-04-01T00:16:08.331Z,2.63
2019-04-01T00:18:40.862Z,2.62
2019-04-01T00:21:11.761Z,2.65
2019-04-01T00:23:42.789Z,2.67
2019-04-01T00:26:13.682Z,2.67
2019-04-01T00:28:48.759Z,2.67
2019-04-01T00:31:19.762Z,2.68
2019-04-01T00:33:50.704Z,2.65
2019-04-01T00:36:21.604Z,2.67
2019-04-01T00:38:52.539Z,2.69
2019-04-01T00:41:23.527Z,2.72
2019-04-01T00:43:56.253Z,2.74
2019-04-01T00:46:27.845Z,2.74
2019-04-01T00:48:58.777Z,2.82
2019-04-01T00:51:29.673Z,2.76
2019-04-01T00:54:00.642Z,2.77
2019-04-01T00:56:31.539Z,2.79
2019-04-01T00:59:02.493Z,2.80
2019-04-01T01:01:33.407Z,2.80
2019-04-01T01:04:04.363Z,2.87
2019-04-01T01:06:35.272Z,2.89
2019-04-01T01:09:06.619Z,2.90
2019-04-01T01:11:37.524Z,2.79
2019-04-01T01:14:08.469Z,2.80
2019-04-01T01:16:39.377Z,2.80
2019-04-01T01:19:10.309Z,2.78
2019-04-01T01:21:41.208Z,2.80
2019-04-01T01:24:12.149Z,2.80
2019-04-01T01:26:43.056Z,2.78
2019-04-01T01:29:15.623Z,2.76
2019-04-01T01:31:46.596Z,2.76
2019-04-01T01:34:17.599Z,2.70
2019-04-01T01:36:48.509Z,2.70
2019-04-01T01:39:19.430Z,2.68
2019-04-01T01:41:50.344Z,2.71
2019-04-01T01:44:21.335Z,2.67
2019-04-01T01:46:52.228Z,2.63
2019-04-01T01:49:23.177Z,2.63
2019-04-01T01:51:54.081Z,2.61
2019-04-01T01:54:25.007Z,2.61
2019-04-01T01:56:55.909Z,2.52
2019-04-01T01:59:26.806Z,2.52
2019-04-01T02:01:58.531Z,2.52
2019-04-01T02:04:31.215Z,2.49
2019-04-01T02:07:02.253Z,2.49
2019-04-01T02:09:33.203Z,2.51
2019-04-01T02:12:04.161Z,2.50
2019-04-01T02:14:35.167Z,2.47
2019-04-01T02:17:06.311Z,2.45
2019-04-01T02:19:38.138Z,2.43
2019-04-01T02:22:09.086Z,2.39
2019-04-01T02:24:39.992Z,2.36
2019-04-01T02:27:10.925Z,2.34
2019-04-01T02:29:41.825Z,2.30
2019-04-01T02:32:12.774Z,2.28
2019-04-01T02:34:43.681Z,2.26
2019-04-01T02:37:14.618Z,2.24
2019-04-01T02:39:45.528Z,2.18
2019-04-01T02:42:16.571Z,2.16
2019-04-01T02:44:47.488Z,2.12
2019-04-01T02:47:18.552Z,2.10
2019-04-01T02:49:49.463Z,2.07
2019-04-01T02:52:20.402Z,2.03
2019-04-01T02:54:52.624Z,1.99
2019-04-01T02:57:23.612Z,1.98
2019-04-01T02:59:54.520Z,1.96
2019-04-01T03:02:26.395Z,1.94
2019-04-01T03:04:57.299Z,1.92
2019-04-01T03:07:28.231Z,1.91
2019-04-01T03:09:59.144Z,1.87
2019-04-01T03:12:30.147Z,1.86
2019-04-01T03:15:01.121Z,1.82
2019-04-01T03:17:44.065Z,1.79
2019-04-01T03:20:08.407Z,1.79
2019-04-01T03:22:39.349Z,1.79
2019-04-01T03:25:10.246Z,1.75
2019-04-01T03:27:41.195Z,1.73
2019-04-01T03:30:12.153Z,1.73
2019-04-01T03:32:45.146Z,1.71
2019-04-01T03:35:15.949Z,1.71
2019-04-01T03:37:47.046Z,1.68
2019-04-01T03:40:18.026Z,1.65
2019-04-01T03:42:48.960Z,1.65
2019-04-01T03:45:19.876Z,1.63
2019-04-01T03:47:54.162Z,1.59
2019-04-01T03:50:25.083Z,1.57
2019-04-01T03:52:56.042Z,1.55
2019-04-01T03:55:26.991Z,1.53
2019-04-01T03:57:58.009Z,1.52
2019-04-01T04:00:28.923Z,1.50
2019-04-01T04:03:00.743Z,1.51
2019-04-01T04:05:31.656Z,1.52
2019-04-01T04:08:09.996Z,1.50
2019-04-01T04:10:35.192Z,1.50
2019-04-01T04:13:08.669Z,1.50
2019-04-01T04:15:39.602Z,1.49
2019-04-01T04:18:11.387Z,1.46
2019-04-01T04:20:43.122Z,1.44
2019-04-01T04:23:14.073Z,1.43
2019-04-01T04:25:45.187Z,1.40
2019-04-01T04:28:16.239Z,1.43
2019-04-01T04:30:47.457Z,1.46
2019-04-01T04:33:19.273Z,1.48
2019-04-01T04:35:50.223Z,1.48
2019-04-01T04:38:21.232Z,1.51
2019-04-01T04:40:52.216Z,1.52
2019-04-01T04:43:23.235Z,1.54
2019-04-01T04:45:54.145Z,1.57
2019-04-01T04:48:25.909Z,1.60
2019-04-01T04:50:56.889Z,1.66
2019-04-01T04:53:27.819Z,1.74
2019-04-01T04:55:58.735Z,1.87
2019-04-01T04:58:29.669Z,2.03
2019-04-01T05:01:00.567Z,2.24
2019-04-01T05:03:32.452Z,2.55
2019-04-01T05:06:03.363Z,2.91
2019-04-01T05:08:34.369Z,3.31
2019-04-01T05:11:05.353Z,3.73
2019-04-01T05:13:38.046Z,4.11
2019-04-01T05:16:09.157Z,4.50
2019-04-01T05:18:40.122Z,5.29
2019-04-01T05:21:12.240Z,5.29
2019-04-01T05:23:43.942Z,5.66
2019-04-01T05:26:15.918Z,5.99
2019-04-01T05:28:50.112Z,6.35
2019-04-01T05:31:23.057Z,6.67
2019-04-01T05:33:56.329Z,7.03
2019-04-01T05:36:27.738Z,7.39
2019-04-01T05:38:58.732Z,7.69
2019-04-01T05:41:29.646Z,7.99
2019-04-01T05:44:02.409Z,8.26
2019-04-01T05:46:33.629Z,8.61
2019-04-01T05:49:05.374Z,8.96
2019-04-01T05:51:36.991Z,9.24
2019-04-01T05:54:08.714Z,9.48
2019-04-01T05:56:39.614Z,9.72
2019-04-01T05:59:10.547Z,9.90
2019-04-01T06:01:43.088Z,10.11
2019-04-01T06:04:16.080Z,10.32
2019-04-01T06:06:48.790Z,10.54
2019-04-01T06:09:19.653Z,10.76
2019-04-01T06:11:52.876Z,11.03
2019-04-01T06:14:23.839Z,11.26
2019-04-01T06:16:55.442Z,11.41
2019-04-01T06:19:27.360Z,11.61
2019-04-01T06:22:00.674Z,11.81
2019-04-01T06:24:32.129Z,11.99
2019-04-01T06:27:03.035Z,12.12
2019-04-01T06:29:34.046Z,12.27
2019-04-01T06:32:04.962Z,12.41
2019-04-01T06:34:35.939Z,12.52
2019-04-01T06:37:07.141Z,12.66
2019-04-01T06:39:38.073Z,12.76
2019-04-01T06:42:09.835Z,12.82
2019-04-01T06:44:40.767Z,12.93
2019-04-01T06:47:11.675Z,13.08
2019-04-01T06:49:43.533Z,13.21
2019-04-01T06:52:14.458Z,13.33
2019-04-01T06:54:45.400Z,13.42
2019-04-01T06:57:18.855Z,13.49
2019-04-01T06:59:49.020Z,13.53
2019-04-01T07:02:20.039Z,13.52
2019-04-01T07:04:51.720Z,13.63
2019-04-01T07:07:22.649Z,13.65
2019-04-01T07:09:53.597Z,13.61
2019-04-01T07:12:24.822Z,13.68
2019-04-01T07:14:55.753Z,13.84
2019-04-01T07:17:26.664Z,13.99
2019-04-01T07:19:58.592Z,14.08
2019-04-01T07:22:31.198Z,13.82
2019-04-01T07:25:02.124Z,13.70
2019-04-01T07:27:33.267Z,13.63
2019-04-01T07:30:05.202Z,13.61
2019-04-01T07:32:36.123Z,13.57
2019-04-01T07:35:07.870Z,13.71
2019-04-01T07:37:38.774Z,13.40
2019-04-01T07:40:09.896Z,12.95
2019-04-01T07:42:40.800Z,13.10
2019-04-01T07:45:11.836Z,12.89
2019-04-01T07:47:42.725Z,11.80
2019-04-01T07:50:15.787Z,11.44
2019-04-01T07:52:46.635Z,11.17
2019-04-01T07:55:17.555Z,11.16
2019-04-01T07:57:48.448Z,10.77
2019-04-01T08:00:20.192Z,10.78
2019-04-01T08:02:51.087Z,10.97
2019-04-01T08:05:25.765Z,10.81
2019-04-01T08:07:54.791Z,10.78
2019-04-01T08:10:25.735Z,10.93
2019-04-01T08:12:56.704Z,10.70
2019-04-01T08:15:27.829Z,10.85
2019-04-01T08:17:58.903Z,10.63
2019-04-01T08:20:30.676Z,10.68
2019-04-01T08:23:02.338Z,11.00
2019-04-01T08:25:33.265Z,10.84
2019-04-01T08:28:04.353Z,10.95
2019-04-01T08:30:35.385Z,11.26
2019-04-01T08:33:06.304Z,11.21
2019-04-01T08:35:38.030Z,10.80
2019-04-01T08:38:08.928Z,10.81
2019-04-01T08:40:39.862Z,10.69
2019-04-01T08:43:10.852Z,10.41
2019-04-01T08:45:41.779Z,10.62
2019-04-01T08:48:12.678Z,10.33
2019-04-01T08:50:43.639Z,10.23
2019-04-01T08:53:14.607Z,10.52
2019-04-01T08:55:45.531Z,10.30
2019-04-01T08:58:16.434Z,10.38
2019-04-01T09:00:47.355Z,10.52
2019-04-01T09:03:18.251Z,10.43
2019-04-01T09:05:50.164Z,10.43
2019-04-01T09:08:22.998Z,10.40
2019-04-01T09:10:54.522Z,10.29
2019-04-01T09:13:26.111Z,10.38
2019-04-01T09:15:57.334Z,10.04
2019-04-01T09:18:28.263Z,10.01
2019-04-01T09:20:59.299Z,9.89
2019-04-01T09:23:31.165Z,9.94
2019-04-01T09:26:02.132Z,10.04
2019-04-01T09:28:33.017Z,9.98
2019-04-01T09:31:03.933Z,9.92
2019-04-01T09:33:34.825Z,9.86
2019-04-01T09:36:06.734Z,9.64
2019-04-01T09:38:37.617Z,9.63
2019-04-01T09:41:08.532Z,9.57
2019-04-01T09:43:39.409Z,9.49
2019-04-01T09:46:10.331Z,9.57
2019-04-01T09:48:41.225Z,9.46
2019-04-01T09:51:12.971Z,9.39
2019-04-01T09:53:43.856Z,9.44
2019-04-01T09:56:14.788Z,9.64
2019-04-01T09:58:45.673Z,9.61
2019-04-01T10:01:16.579Z,9.61
2019-04-01T10:03:47.469Z,9.45
2019-04-01T10:06:19.249Z,9.48
2019-04-01T10:08:50.138Z,9.26
2019-04-01T10:11:21.070Z,9.28
2019-04-01T10:13:51.970Z,9.39
2019-04-01T10:16:26.327Z,9.45
2019-04-01T10:18:55.461Z,9.39
2019-04-01T10:21:26.393Z,9.44
2019-04-01T10:23:59.717Z,9.46
2019-04-01T10:26:30.726Z,9.42
2019-04-01T10:29:01.637Z,9.40
2019-04-01T10:31:32.656Z,9.30
2019-04-01T10:34:03.540Z,9.33
2019-04-01T10:36:34.480Z,9.21
2019-04-01T10:39:07.575Z,9.23
2019-04-01T10:41:38.554Z,9.23
2019-04-01T10:44:09.441Z,9.21
2019-04-01T10:46:40.827Z,9.22
2019-04-01T10:49:11.990Z,9.20
2019-04-01T10:51:43.949Z,9.10
2019-04-01T10:54:14.884Z,9.13
2019-04-01T10:56:45.796Z,9.40
2019-04-01T10:59:16.716Z,9.41
2019-04-01T11:01:47.689Z,9.26
2019-04-01T11:04:21.947Z,9.16
2019-04-01T11:06:53.026Z,9.34
2019-04-01T11:09:37.728Z,9.30
2019-04-01T11:11:56.590Z,9.21
2019-04-01T11:14:27.535Z,9.16
2019-04-01T11:16:58.467Z,9.24
2019-04-01T11:19:29.344Z,9.26
2019-04-01T11:22:01.211Z,9.23
2019-04-01T11:24:32.893Z,9.28
2019-04-01T11:27:03.808Z,9.28
2019-04-01T11:29:34.692Z,9.35
2019-04-01T11:32:05.670Z,9.45
2019-04-01T11:34:36.578Z,9.39
2019-04-01T11:37:08.503Z,9.38
2019-04-01T11:39:39.466Z,9.28
2019-04-01T11:42:10.498Z,9.20
2019-04-01T11:44:41.442Z,9.28
2019-04-01T11:47:12.450Z,9.31
2019-04-01T11:49:43.301Z,9.08
2019-04-01T11:52:15.678Z,9.02
2019-04-01T11:54:46.867Z,9.03
2019-04-01T11:57:17.789Z,9.04
2019-04-01T11:59:48.682Z,8.99
2019-04-01T12:02:19.609Z,9.11
2019-04-01T12:04:50.491Z,8.99
2019-04-01T12:07:21.514Z,9.07
2019-04-01T12:09:52.561Z,9.04
2019-04-01T12:12:24.509Z,8.99
2019-04-01T12:14:55.525Z,8.99
2019-04-01T12:17:26.459Z,9.00
2019-04-01T12:19:57.413Z,9.02
2019-04-01T12:22:30.817Z,9.13
2019-04-01T12:25:02.627Z,8.92
2019-04-01T12:27:33.527Z,8.94
2019-04-01T12:30:05.718Z,9.08
2019-04-01T12:32:36.637Z,9.00
2019-04-01T12:35:07.633Z,9.00
2019-04-01T12:37:39.433Z,9.06
2019-04-01T12:40:10.629Z,8.91
2019-04-01T12:42:41.533Z,8.89
2019-04-01T12:45:12.415Z,8.91
2019-04-01T12:47:43.703Z,8.82
2019-04-01T12:50:15.274Z,8.91
2019-04-01T12:52:47.066Z,8.82
2019-04-01T12:55:18.048Z,8.82
2019-04-01T12:57:49.009Z,8.83
2019-04-01T13:00:22.198Z,8.85
2019-04-01T13:02:53.301Z,8.74
2019-04-01T13:05:24.190Z,8.82
2019-04-01T13:07:56.011Z,8.82
2019-04-01T13:10:26.897Z,8.78
2019-04-01T13:12:57.811Z,8.78
2019-04-01T13:15:28.695Z,8.79
2019-04-01T13:17:59.611Z,8.76
2019-04-01T13:20:37.615Z,8.85
2019-04-01T13:23:03.136Z,8.80
2019-04-01T13:25:35.593Z,8.72
2019-04-01T13:28:06.512Z,8.73
2019-04-01T13:30:37.393Z,8.84
2019-04-01T13:33:08.322Z,8.76
2019-04-01T13:35:39.981Z,8.77
2019-04-01T13:38:11.891Z,8.79
2019-04-01T13:40:44.264Z,8.71
2019-04-01T13:43:17.000Z,8.80
2019-04-01T13:45:48.047Z,8.77
2019-04-01T13:48:19.967Z,8.76
2019-04-01T13:50:50.862Z,8.68
2019-04-01T13:53:24.035Z,8.71
2019-04-01T13:55:54.912Z,8.70
2019-04-01T13:58:25.832Z,8.67
2019-04-01T14:00:57.472Z,8.77
2019-04-01T14:03:34.937Z,8.76
2019-04-01T14:06:05.816Z,8.66
2019-04-01T14:08:38.420Z,8.60
2019-04-01T14:11:09.305Z,8.59
2019-04-01T14:13:41.613Z,8.68
2019-04-01T14:16:35.962Z,8.66
2019-04-01T14:19:12.710Z,8.63
2019-04-01T14:22:09.043Z,8.62
2019-04-01T14:24:45.682Z,8.59
2019-04-01T14:27:19.947Z,8.57
2019-04-01T14:29:50.865Z,8.55
2019-04-01T14:32:21.967Z,8.61
2019-04-01T14:34:52.899Z,8.63
2019-04-01T14:37:26.217Z,8.52
2019-04-01T14:39:57.376Z,8.52
2019-04-01T14:42:28.283Z,8.53
2019-04-01T14:45:00.611Z,8.53
2019-04-01T14:47:32.576Z,8.45
2019-04-01T14:50:07.498Z,8.42
2019-04-01T14:52:36.245Z,8.51
2019-04-01T14:55:08.154Z,8.49
2019-04-01T14:57:39.115Z,8.41
2019-04-01T15:00:12.867Z,8.41
2019-04-01T15:02:43.763Z,8.41
2019-04-01T15:05:14.681Z,8.44
2019-04-01T15:07:46.959Z,8.46
2019-04-01T15:10:18.426Z,8.41
2019-04-01T15:13:04.057Z,8.34
2019-04-01T15:15:21.979Z,8.34
2019-04-01T15:17:52.858Z,8.24
2019-04-01T15:20:23.906Z,8.36
2019-04-01T15:22:54.907Z,8.31
2019-04-01T15:25:26.878Z,8.26
2019-04-01T15:27:58.356Z,8.25
2019-04-01T15:30:46.986Z,8.28
2019-04-01T15:33:17.892Z,8.36
2019-04-01T15:35:48.814Z,8.32
2019-04-01T15:38:19.730Z,8.31
2019-04-01T15:40:50.666Z,8.19
2019-04-01T15:43:21.564Z,8.21
2019-04-01T15:45:52.489Z,8.13
2019-04-01T15:48:23.373Z,8.11
2019-04-01T15:50:54.300Z,8.14
2019-04-01T15:53:25.199Z,8.18
2019-04-01T15:55:57.003Z,8.07
2019-04-01T15:58:27.900Z,8.03
2019-04-01T16:00:58.825Z,8.03
2019-04-01T16:03:29.780Z,8.03
2019-04-01T16:06:00.690Z,7.90
2019-04-01T16:08:31.658Z,7.92
2019-04-01T16:11:03.555Z,7.91
2019-04-01T16:13:34.474Z,7.92
2019-04-01T16:16:07.056Z,7.84
2019-04-01T16:18:38.118Z,7.79
2019-04-01T16:21:09.050Z,7.79
2019-04-01T16:23:39.948Z,7.76
2019-04-01T16:26:11.854Z,7.71
2019-04-01T16:28:42.913Z,7.70
2019-04-01T16:31:13.834Z,7.56
2019-04-01T16:33:44.752Z,7.55
2019-04-01T16:36:15.687Z,7.43
2019-04-01T16:38:46.588Z,7.47
2019-04-01T16:41:18.407Z,7.47
2019-04-01T16:43:49.312Z,7.42
2019-04-01T16:46:20.252Z,7.31
2019-04-01T16:48:51.152Z,7.27
2019-04-01T16:51:22.103Z,7.23
2019-04-01T16:53:55.936Z,7.16
2019-04-01T16:56:26.605Z,7.03
2019-04-01T16:58:57.576Z,7.02
2019-04-01T17:01:28.514Z,6.99
2019-04-01T17:03:59.416Z,6.88
2019-04-01T17:06:30.433Z,6.84
2019-04-01T17:09:01.336Z,6.82
2019-04-01T17:11:32.282Z,6.78
2019-04-01T17:14:03.188Z,6.72
2019-04-01T17:16:34.232Z,6.72
2019-04-01T17:19:05.133Z,6.67
2019-04-01T17:21:36.073Z,6.61
2019-04-01T17:24:06.976Z,6.61
2019-04-01T17:26:58.078Z,6.55
2019-04-01T17:29:31.765Z,6.51
2019-04-01T17:32:02.645Z,6.45
2019-04-01T17:34:33.543Z,6.40
2019-04-01T17:37:04.489Z,6.31
2019-04-01T17:39:35.395Z,6.18
2019-04-01T17:42:07.360Z,6.15
2019-04-01T17:44:38.264Z,6.05
2019-04-01T17:47:09.202Z,5.99
2019-04-01T17:49:40.113Z,5.94
2019-04-01T17:52:11.160Z,5.96
2019-04-01T17:54:42.079Z,5.90
2019-04-01T17:57:13.952Z,5.85
2019-04-01T17:59:44.823Z,5.78
2019-04-01T18:02:18.735Z,5.78
2019-04-01T18:04:49.666Z,5.73
2019-04-01T18:07:20.603Z,5.68
2019-04-01T18:09:51.577Z,5.66
2019-04-01T18:12:23.988Z,5.64
2019-04-01T18:14:55.264Z,5.63
2019-04-01T18:17:26.210Z,5.62
2019-04-01T18:19:57.119Z,5.58
2019-04-01T18:22:29.120Z,5.57
2019-04-01T18:25:00.406Z,5.54
2019-04-01T18:27:32.257Z,5.52
2019-04-01T18:30:06.426Z,5.49
2019-04-01T18:32:37.625Z,5.49
2019-04-01T18:35:09.033Z,5.45
2019-04-01T18:37:40.015Z,5.36
2019-04-01T18:40:11.303Z,5.32
2019-04-01T18:42:42.278Z,5.25
2019-04-01T18:45:13.306Z,5.21
2019-04-01T18:47:44.240Z,5.13
2019-04-01T18:50:15.147Z,4.98
2019-04-01T18:52:46.082Z,4.94
2019-04-01T18:55:17.012Z,4.80
2019-04-01T18:57:48.965Z,4.77
2019-04-01T19:00:20.386Z,4.74
2019-04-01T19:02:51.349Z,4.71
2019-04-01T19:05:22.423Z,4.65
2019-04-01T19:07:53.400Z,4.66
2019-04-01T19:10:24.443Z,4.65
2019-04-01T19:13:05.772Z,4.59
2019-04-01T19:15:29.835Z,4.59
2019-04-01T19:18:01.735Z,4.56
2019-04-01T19:20:32.689Z,4.57
2019-04-01T19:23:03.742Z,4.55
2019-04-01T19:25:34.712Z,4.56
2019-04-01T19:28:06.635Z,4.55
2019-04-01T19:30:38.447Z,4.56
2019-04-01T19:33:09.415Z,4.56
2019-04-01T19:35:40.352Z,4.58
2019-04-01T19:38:11.333Z,4.57
2019-04-01T19:40:42.351Z,4.56
2019-04-01T19:43:16.137Z,4.59
2019-04-01T19:45:50.539Z,4.58
2019-04-01T19:48:20.164Z,4.56
2019-04-01T19:50:51.071Z,4.53
2019-04-01T19:53:22.072Z,4.47
2019-04-01T19:55:53.067Z,4.38
2019-04-01T19:58:25.501Z,4.38
2019-04-01T20:00:57.073Z,4.36
2019-04-01T20:03:28.028Z,4.32
2019-04-01T20:05:58.923Z,4.28
2019-04-01T20:08:29.862Z,4.23
2019-04-01T20:11:00.769Z,4.19
2019-04-01T20:13:32.586Z,4.12
2019-04-01T20:16:03.487Z,4.06
2019-04-01T20:18:35.312Z,3.99
2019-04-01T20:21:07.079Z,3.97
2019-04-01T20:23:38.021Z,3.91
2019-04-01T20:26:09.004Z,3.87
2019-04-01T20:28:42.079Z,3.81
2019-04-01T20:31:14.388Z,3.77
2019-04-01T20:33:45.425Z,3.74
2019-04-01T20:36:28.008Z,3.70
2019-04-01T20:38:49.005Z,3.62
2019-04-01T20:41:20.254Z,3.62
2019-04-01T20:43:52.943Z,3.55
2019-04-01T20:46:23.846Z,3.55
2019-04-01T20:48:54.786Z,3.52
2019-04-01T20:51:26.133Z,3.39
2019-04-01T20:53:57.531Z,3.40
2019-04-01T20:56:28.513Z,3.40
2019-04-01T20:59:00.442Z,3.36
2019-04-01T21:01:31.352Z,3.32
2019-04-01T21:04:02.292Z,3.29
2019-04-01T21:06:33.208Z,3.26
2019-04-01T21:09:06.856Z,3.18
2019-04-01T21:11:37.765Z,3.11
2019-04-01T21:14:09.597Z,3.11
2019-04-01T21:16:40.550Z,3.09
2019-04-01T21:19:11.526Z,3.02
2019-04-01T21:21:42.481Z,3.02
2019-04-01T21:24:13.532Z,2.98
2019-04-01T21:26:44.537Z,2.96
2019-04-01T21:29:15.570Z,2.90
2019-04-01T21:31:48.529Z,2.90
2019-04-01T21:34:19.709Z,2.87
2019-04-01T21:36:50.637Z,2.82
2019-04-01T21:39:21.614Z,2.77
2019-04-01T21:41:53.897Z,2.75
2019-04-01T21:44:25.071Z,2.72
2019-04-01T21:46:55.983Z,2.70
2019-04-01T21:49:27.107Z,2.67
2019-04-01T21:51:58.014Z,2.64
2019-04-01T21:54:28.955Z,2.60
2019-04-01T21:56:59.849Z,2.57
2019-04-01T21:59:31.680Z,2.53
2019-04-01T22:02:03.356Z,2.51
2019-04-01T22:04:35.206Z,2.49
2019-04-01T22:07:06.208Z,2.46
2019-04-01T22:09:38.084Z,2.45
2019-04-01T22:12:08.995Z,2.44
2019-04-01T22:14:39.946Z,2.42
2019-04-01T22:17:10.860Z,2.40
2019-04-01T22:19:41.804Z,2.38
2019-04-01T22:22:12.708Z,2.36
2019-04-01T22:24:43.638Z,2.33
2019-04-01T22:27:14.551Z,2.33
2019-04-01T22:29:46.328Z,2.29
2019-04-01T22:32:17.241Z,2.28
2019-04-01T22:34:48.180Z,2.28
2019-04-01T22:37:27.052Z,2.26
2019-04-01T22:39:51.729Z,2.23
2019-04-01T22:42:22.687Z,2.22
2019-04-01T22:44:53.686Z,2.19
2019-04-01T22:47:24.639Z,2.17
2019-04-01T22:49:55.620Z,2.14
2019-04-01T22:52:26.551Z,2.12
2019-04-01T22:54:58.263Z,2.09
2019-04-01T22:57:30.148Z,2.06
2019-04-01T23:00:01.955Z,2.05
2019-04-01T23:02:32.907Z,2.02
2019-04-01T23:05:04.584Z,1.99
2019-04-01T23:07:35.508Z,1.98
2019-04-01T23:10:07.971Z,1.94
2019-04-01T23:12:38.918Z,1.92
2019-04-01T23:15:10.878Z,1.90
2019-04-01T23:17:41.830Z,1.87
2019-04-01T23:20:12.878Z,1.86
2019-04-01T23:22:43.816Z,1.84
2019-04-01T23:25:15.254Z,1.82
2019-04-01T23:27:46.172Z,1.80
2019-04-01T23:30:17.988Z,1.79
2019-04-01T23:32:48.902Z,1.76
2019-04-01T23:35:19.913Z,1.75
2019-04-01T23:37:50.820Z,1.72
2019-04-01T23:40:21.761Z,1.70
2019-04-01T23:42:52.670Z,1.67
2019-04-01T23:45:23.638Z,1.62
2019-04-01T23:47:54.558Z,1.59
2019-04-01T23:50:25.741Z,1.56
2019-04-01T23:52:56.719Z,1.53
2019-04-01T23:55:29.199Z,1.50
2019-04-01T23:58:00.755Z,1.44
